Time;durP1;ratioP1;P1;durP2;ratioP2;P2;SDS_P1;SDS_P2;PMS_P1;PMS_P2;Temp;Humidity;BMP_temperature;BMP_pressure;BME280_temperature;BME280_humidity;BME280_pressure;Samples;Min_cycle;Max_cycle;Signal;HPM_P1;HPM_P2
2023/12/05 00:00:21;;;;;;;16.27;13.43;;;3.90;99.90;;;;;;5080299;28;20016;-38
2023/12/05 00:02:46;;;;;;;16.75;14.15;;;3.90;99.90;;;;;;5080727;28;20027;-37
2023/12/05 00:05:15;;;;;;;16.70;14.15;;;3.90;99.90;;;;;;5080768;28;20584;-37
2023/12/05 00:07:43;;;;;;;15.43;12.98;;;3.90;99.90;;;;;;5079912;28;20128;-38
2023/12/05 00:10:09;;;;;;;16.75;13.50;;;3.90;99.90;;;;;;5080840;28;20021;-37
2023/12/05 00:12:35;;;;;;;17.10;13.15;;;3.90;99.90;;;;;;5080206;28;20504;-38
2023/12/05 00:15:03;;;;;;;15.13;12.40;;;3.90;99.90;;;;;;5080192;28;20020;-37
2023/12/05 00:17:29;;;;;;;17.02;13.63;;;3.90;99.90;;;;;;5080426;28;20032;-37
2023/12/05 00:19:55;;;;;;;17.52;13.85;;;3.90;99.90;;;;;;5079845;28;20034;-37
2023/12/05 00:22:21;;;;;;;15.63;13.65;;;4.00;99.90;;;;;;5080212;28;20039;-38
2023/12/05 00:24:46;;;;;;;15.20;12.70;;;3.90;99.90;;;;;;5080166;28;20101;-37
2023/12/05 00:27:12;;;;;;;15.43;12.65;;;3.90;99.90;;;;;;5079544;28;20119;-38
2023/12/05 00:29:38;;;;;;;16.20;13.15;;;4.00;99.90;;;;;;5080910;28;20083;-38
2023/12/05 00:32:04;;;;;;;15.35;13.20;;;4.00;99.90;;;;;;5079806;28;20585;-36
2023/12/05 00:34:29;;;;;;;15.15;13.30;;;3.90;99.90;;;;;;5080493;28;20020;-37
2023/12/05 00:36:55;;;;;;;15.68;12.90;;;4.00;99.90;;;;;;5079904;28;20042;-36
2023/12/05 00:39:20;;;;;;;16.10;13.13;;;4.00;99.90;;;;;;5081212;28;20024;-39
2023/12/05 00:41:47;;;;;;;15.68;13.27;;;4.00;99.90;;;;;;5079951;28;20031;-37
2023/12/05 00:44:12;;;;;;;13.15;11.30;;;3.90;99.90;;;;;;5080831;28;20593;-36
2023/12/05 00:46:38;;;;;;;15.30;12.57;;;4.00;99.90;;;;;;5080221;28;20154;-39
2023/12/05 00:49:04;;;;;;;13.75;12.25;;;3.90;99.90;;;;;;5079137;28;20024;-37
2023/12/05 00:51:30;;;;;;;15.38;13.05;;;4.00;99.90;;;;;;5080875;28;20031;-38
2023/12/05 00:53:56;;;;;;;16.90;14.95;;;4.00;99.90;;;;;;5079263;28;20489;-37
2023/12/05 00:56:22;;;;;;;16.25;13.60;;;4.00;99.90;;;;;;5079470;28;20048;-38
2023/12/05 00:58:47;;;;;;;17.38;13.15;;;4.00;99.90;;;;;;5067082;28;20028;-38
2023/12/05 01:01:13;;;;;;;15.88;12.90;;;3.90;99.90;;;;;;5079926;28;20101;-37
2023/12/05 01:03:39;;;;;;;15.57;13.00;;;3.90;99.90;;;;;;5067477;28;20793;-38
2023/12/05 01:06:05;;;;;;;14.40;12.27;;;4.00;99.90;;;;;;5078451;28;20044;-38
2023/12/05 01:08:31;;;;;;;14.77;12.98;;;3.90;99.90;;;;;;5071223;28;20035;-37
2023/12/05 01:10:57;;;;;;;15.43;13.05;;;4.00;99.90;;;;;;5075191;28;20468;-38
2023/12/05 01:13:24;;;;;;;15.32;13.00;;;3.90;99.90;;;;;;5074427;28;20071;-38
2023/12/05 01:15:50;;;;;;;17.83;13.98;;;3.90;99.90;;;;;;5073284;28;20036;-38
2023/12/05 01:18:15;;;;;;;18.27;14.45;;;3.90;99.90;;;;;;5076493;28;20035;-36
2023/12/05 01:20:41;;;;;;;16.15;13.35;;;3.90;99.90;;;;;;5071907;28;20027;-38
2023/12/05 01:23:07;;;;;;;14.57;12.98;;;3.90;99.90;;;;;;5077960;28;20179;-37
2023/12/05 01:25:32;;;;;;;15.98;13.80;;;3.90;99.90;;;;;;5061762;28;20151;-37
2023/12/05 01:27:58;;;;;;;18.33;14.07;;;3.90;99.90;;;;;;5065169;28;20573;-37
2023/12/05 01:30:24;;;;;;;15.98;13.30;;;3.90;99.90;;;;;;5074193;28;20475;-37
2023/12/05 01:32:49;;;;;;;14.23;12.18;;;3.90;99.90;;;;;;5064012;28;20131;-37
2023/12/05 01:35:16;;;;;;;17.90;13.45;;;3.90;99.90;;;;;;5076814;28;20441;-38
2023/12/05 01:37:42;;;;;;;15.90;12.80;;;3.90;99.90;;;;;;5062771;28;20024;-37
2023/12/05 01:40:09;;;;;;;16.27;13.80;;;3.90;99.90;;;;;;5075819;28;20024;-37
2023/12/05 01:42:36;;;;;;;15.88;12.75;;;3.90;99.90;;;;;;5063990;28;20032;-37
2023/12/05 01:45:04;;;;;;;15.43;12.60;;;3.90;99.90;;;;;;5073306;28;20031;-37
2023/12/05 01:47:34;;;;;;;16.67;13.52;;;3.90;99.90;;;;;;5064673;28;20043;-37
2023/12/05 01:50:00;;;;;;;16.25;13.35;;;3.90;99.90;;;;;;5071849;28;20028;-37
2023/12/05 01:52:26;;;;;;;16.08;12.85;;;3.90;99.90;;;;;;5065929;28;20024;-37
2023/12/05 01:54:52;;;;;;;17.27;13.52;;;3.90;99.90;;;;;;5070022;28;20568;-37
2023/12/05 01:57:19;;;;;;;15.85;13.05;;;3.90;99.90;;;;;;5068582;28;20048;-37
2023/12/05 01:59:45;;;;;;;16.38;13.27;;;3.90;99.90;;;;;;5066929;28;20027;-37
2023/12/05 02:02:12;;;;;;;16.90;14.18;;;3.90;99.90;;;;;;5070634;28;20020;-36
2023/12/05 02:04:38;;;;;;;17.42;13.68;;;3.90;99.90;;;;;;5065412;28;20748;-39
2023/12/05 02:07:05;;;;;;;18.88;15.00;;;3.90;99.90;;;;;;5072874;28;20040;-37
2023/12/05 02:09:31;;;;;;;19.00;15.55;;;3.90;99.90;;;;;;5065353;28;20095;-40
2023/12/05 02:11:57;;;;;;;17.77;14.25;;;3.90;99.90;;;;;;5073588;28;20020;-38
2023/12/05 02:14:23;;;;;;;19.02;14.85;;;3.90;99.90;;;;;;5064079;28;20025;-38
2023/12/05 02:16:58;;;;;;;20.38;16.13;;;3.90;99.90;;;;;;5070071;28;20128;-38
2023/12/05 02:19:42;;;;;;;17.30;14.00;;;3.90;99.90;;;;;;5062520;28;20024;-38
2023/12/05 02:22:34;;;;;;;17.70;14.43;;;3.90;99.90;;;;;;5071117;28;20040;-38
2023/12/05 02:25:02;;;;;;;17.70;13.85;;;3.90;99.90;;;;;;5063538;28;20060;-38
2023/12/05 02:27:41;;;;;;;18.20;14.13;;;3.90;99.90;;;;;;5072900;28;20048;-38
2023/12/05 02:30:09;;;;;;;19.10;15.02;;;3.90;99.90;;;;;;5064346;28;20028;-38
2023/12/05 02:32:35;;;;;;;17.13;13.73;;;3.90;99.90;;;;;;5074526;28;20912;-38
2023/12/05 02:35:02;;;;;;;18.17;15.23;;;3.90;99.90;;;;;;5062492;28;20024;-37
2023/12/05 02:38:02;;;;;;;17.77;14.95;;;3.90;99.90;;;;;;5075027;28;20020;-37
2023/12/05 02:40:36;;;;;;;19.55;15.73;;;3.90;99.90;;;;;;5031540;28;20040;-38
2023/12/05 02:43:08;;;;;;;19.65;16.05;;;3.90;99.90;;;;;;5073511;28;20078;-37
2023/12/05 02:45:37;;;;;;;18.30;14.45;;;3.90;99.90;;;;;;5064043;28;20863;-37
2023/12/05 02:48:05;;;;;;;19.10;15.30;;;3.90;99.90;;;;;;5072137;28;20065;-37
2023/12/05 02:50:30;;;;;;;18.52;15.32;;;3.90;99.90;;;;;;5063145;28;20036;-37
2023/12/05 02:52:59;;;;;;;18.88;14.80;;;3.90;99.90;;;;;;5073807;28;20059;-38
2023/12/05 02:55:24;;;;;;;18.75;14.73;;;3.90;99.90;;;;;;5061682;28;20035;-38
2023/12/05 02:57:50;;;;;;;20.67;16.40;;;3.90;99.90;;;;;;5079491;28;20063;-37
2023/12/05 03:00:16;;;;;;;21.58;16.67;;;4.00;99.90;;;;;;5082879;28;20139;-37
2023/12/05 03:02:44;;;;;;;20.85;16.60;;;3.90;99.90;;;;;;5081060;28;20031;-37
2023/12/05 03:05:10;;;;;;;21.00;16.52;;;3.90;99.90;;;;;;5081165;28;20074;-37
2023/12/05 03:07:36;;;;;;;21.35;16.23;;;3.90;99.90;;;;;;5081483;28;20150;-37
2023/12/05 03:10:03;;;;;;;19.13;15.77;;;3.90;99.90;;;;;;5080289;28;20028;-37
2023/12/05 03:12:31;;;;;;;21.02;15.82;;;3.90;99.90;;;;;;5081578;28;20484;-39
2023/12/05 03:14:57;;;;;;;20.38;15.10;;;3.90;99.90;;;;;;5081454;28;20352;-37
2023/12/05 03:17:22;;;;;;;19.10;14.90;;;4.00;99.90;;;;;;5081243;28;20526;-37
2023/12/05 03:19:48;;;;;;;19.17;14.55;;;4.00;99.90;;;;;;5081735;28;20028;-37
2023/12/05 03:22:13;;;;;;;21.70;16.40;;;4.00;99.90;;;;;;5081098;28;20028;-37
2023/12/05 03:24:39;;;;;;;21.52;15.60;;;4.00;99.90;;;;;;5081639;28;20127;-38
2023/12/05 03:27:04;;;;;;;19.40;15.13;;;3.90;99.90;;;;;;5081190;28;20077;-37
2023/12/05 03:29:30;;;;;;;19.65;15.00;;;3.90;99.90;;;;;;5080876;28;20142;-36
2023/12/05 03:31:56;;;;;;;19.80;15.18;;;3.90;99.90;;;;;;5080992;28;20027;-37
2023/12/05 03:34:21;;;;;;;19.13;13.93;;;3.90;99.90;;;;;;5081463;28;20554;-37
2023/12/05 03:36:47;;;;;;;21.42;15.18;;;3.90;99.90;;;;;;5081280;28;20070;-37
2023/12/05 03:39:15;;;;;;;17.92;13.95;;;3.90;99.90;;;;;;5081120;28;20789;-36
2023/12/05 03:41:43;;;;;;;21.08;15.40;;;3.90;99.90;;;;;;5080562;28;20024;-36
2023/12/05 03:44:08;;;;;;;18.77;13.93;;;3.90;99.90;;;;;;5080779;28;20032;-37
2023/12/05 03:46:34;;;;;;;19.85;15.18;;;3.90;99.90;;;;;;5081734;28;20035;-38
2023/12/05 03:49:00;;;;;;;18.42;13.45;;;3.90;99.90;;;;;;5079725;28;20035;-37
2023/12/05 03:51:25;;;;;;;18.08;13.95;;;3.90;99.90;;;;;;5080476;28;20024;-37
2023/12/05 03:53:51;;;;;;;18.30;13.88;;;3.90;99.90;;;;;;5080996;28;20020;-37
2023/12/05 03:56:16;;;;;;;18.63;14.30;;;3.90;99.90;;;;;;5081253;28;20123;-38
2023/12/05 03:58:42;;;;;;;18.23;13.85;;;3.90;99.90;;;;;;5076109;28;20024;-37
2023/12/05 04:01:09;;;;;;;19.02;14.77;;;3.90;99.90;;;;;;5073046;28;20116;-37
2023/12/05 04:03:37;;;;;;;18.13;13.57;;;3.90;99.90;;;;;;5078323;28;20666;-38
2023/12/05 04:06:03;;;;;;;18.80;14.27;;;3.90;99.90;;;;;;5069445;28;20086;-37
2023/12/05 04:08:29;;;;;;;17.52;12.82;;;3.90;99.90;;;;;;5079560;28;20709;-37
2023/12/05 04:10:54;;;;;;;17.40;13.13;;;3.90;99.90;;;;;;5069216;28;20806;-37
2023/12/05 04:13:20;;;;;;;15.18;12.63;;;3.90;99.90;;;;;;5079478;28;20028;-37
2023/12/05 04:15:45;;;;;;;16.75;12.48;;;3.90;99.90;;;;;;5069326;28;20028;-37
2023/12/05 04:18:11;;;;;;;17.63;13.25;;;3.90;99.90;;;;;;5080806;28;20035;-38
2023/12/05 04:20:36;;;;;;;17.67;13.65;;;3.90;99.90;;;;;;5067308;28;20063;-38
2023/12/05 04:23:02;;;;;;;17.35;13.32;;;3.90;99.90;;;;;;5080502;28;20032;-38
2023/12/05 04:25:28;;;;;;;18.65;12.90;;;3.90;99.90;;;;;;5068393;28;20484;-38
2023/12/05 04:27:53;;;;;;;18.08;13.57;;;3.90;99.90;;;;;;5079384;28;20043;-38
2023/12/05 04:30:19;;;;;;;15.77;12.18;;;3.90;99.90;;;;;;5071795;28;20052;-37
2023/12/05 04:32:45;;;;;;;15.32;12.30;;;3.90;99.90;;;;;;5077239;28;20032;-37
2023/12/05 04:35:10;;;;;;;16.40;12.38;;;3.90;99.90;;;;;;5073802;28;20024;-37
2023/12/05 04:37:36;;;;;;;16.83;13.63;;;3.90;99.90;;;;;;5075582;28;20759;-37
2023/12/05 04:40:01;;;;;;;16.73;12.25;;;3.90;99.90;;;;;;5075515;28;20036;-37
2023/12/05 04:42:27;;;;;;;16.63;12.80;;;3.90;99.90;;;;;;5072306;28;20031;-41
2023/12/05 04:44:52;;;;;;;17.45;13.07;;;3.90;99.90;;;;;;5078705;28;20028;-37
2023/12/05 04:47:19;;;;;;;16.33;12.27;;;3.90;99.90;;;;;;5057300;28;20040;-37
2023/12/05 04:49:44;;;;;;;14.68;11.30;;;3.90;99.90;;;;;;5078757;28;20660;-37
2023/12/05 04:52:12;;;;;;;16.08;12.23;;;3.90;99.90;;;;;;5068996;28;20081;-37
2023/12/05 04:54:38;;;;;;;14.85;11.43;;;3.90;99.90;;;;;;5079407;28;20028;-39
2023/12/05 04:57:03;;;;;;;15.43;12.05;;;4.00;99.90;;;;;;5076336;28;20055;-38
2023/12/05 04:59:29;;;;;;;16.05;11.45;;;3.90;99.90;;;;;;5081150;28;20028;-37
2023/12/05 05:01:55;;;;;;;14.23;10.82;;;4.00;99.90;;;;;;5082545;28;20476;-37
2023/12/05 05:04:21;;;;;;;16.63;11.93;;;4.00;99.90;;;;;;5084651;28;20520;-37
2023/12/05 05:06:46;;;;;;;16.20;11.95;;;4.00;99.90;;;;;;5084589;28;20537;-37
2023/12/05 05:09:12;;;;;;;14.10;11.23;;;3.90;99.90;;;;;;5083942;28;20085;-38
2023/12/05 05:11:38;;;;;;;14.63;11.63;;;4.00;99.90;;;;;;5084621;28;20024;-38
2023/12/05 05:14:04;;;;;;;14.93;11.95;;;4.00;99.90;;;;;;5084951;28;20039;-37
2023/12/05 05:16:29;;;;;;;16.75;12.45;;;4.00;99.90;;;;;;5083956;28;20545;-38
2023/12/05 05:18:55;;;;;;;16.52;12.52;;;3.90;99.90;;;;;;5083728;28;20113;-36
2023/12/05 05:21:21;;;;;;;16.08;11.95;;;3.90;99.90;;;;;;5084210;28;20059;-37
2023/12/05 05:23:46;;;;;;;16.33;11.85;;;3.90;99.90;;;;;;5082734;28;20028;-37
2023/12/05 05:26:14;;;;;;;15.30;11.82;;;3.90;99.90;;;;;;5083275;28;20075;-35
2023/12/05 05:28:39;;;;;;;15.52;11.57;;;3.90;99.90;;;;;;5083360;28;20106;-37
2023/12/05 05:31:05;;;;;;;14.73;11.07;;;3.90;99.90;;;;;;5082659;28;20028;-38
2023/12/05 05:33:31;;;;;;;17.13;12.68;;;3.90;99.90;;;;;;5084139;28;20031;-37
2023/12/05 05:35:56;;;;;;;15.40;11.63;;;3.90;99.90;;;;;;5083243;28;20332;-37
2023/12/05 05:38:25;;;;;;;15.07;11.45;;;3.80;99.90;;;;;;5083349;28;20104;-37
2023/12/05 05:41:04;;;;;;;15.05;11.43;;;3.80;99.90;;;;;;5083084;28;20039;-38
2023/12/05 05:43:30;;;;;;;14.02;10.75;;;3.90;99.90;;;;;;5083209;28;20039;-37
2023/12/05 05:45:56;;;;;;;14.27;11.43;;;3.80;99.90;;;;;;5083069;28;20032;-37
2023/12/05 05:48:21;;;;;;;14.88;11.38;;;3.90;99.90;;;;;;5084186;28;20563;-37
2023/12/05 05:50:50;;;;;;;13.75;11.15;;;3.90;99.90;;;;;;5083672;28;20026;-38
2023/12/05 05:53:16;;;;;;;15.30;11.80;;;3.90;99.90;;;;;;5083834;28;20081;-37
2023/12/05 05:55:41;;;;;;;13.10;10.77;;;3.90;99.90;;;;;;5083740;28;20418;-37
2023/12/05 05:58:13;;;;;;;12.63;9.77;;;3.80;99.90;;;;;;5074150;28;20032;-38
2023/12/05 06:00:39;;;;;;;13.88;11.32;;;3.90;99.90;;;;;;5079216;28;20501;-37
2023/12/05 06:03:11;;;;;;;12.48;9.30;;;3.90;99.90;;;;;;5076211;28;20017;-37
2023/12/05 06:05:36;;;;;;;13.85;11.13;;;3.80;99.90;;;;;;5077521;28;20426;-38
2023/12/05 06:08:02;;;;;;;14.65;11.20;;;3.80;99.90;;;;;;5077534;28;20024;-37
2023/12/05 06:10:28;;;;;;;15.07;12.10;;;3.80;99.90;;;;;;5074984;28;20654;-37
2023/12/05 06:12:53;;;;;;;15.48;11.68;;;3.80;99.90;;;;;;5079803;28;20467;-37
2023/12/05 06:15:19;;;;;;;14.65;11.25;;;3.80;99.90;;;;;;5072697;28;20031;-37
2023/12/05 06:17:44;;;;;;;13.63;11.30;;;3.80;99.90;;;;;;5078937;28;20069;-39
2023/12/05 06:20:10;;;;;;;15.75;12.80;;;3.80;99.90;;;;;;5073700;28;20020;-37
2023/12/05 06:22:36;;;;;;;15.52;11.90;;;3.80;99.90;;;;;;5062755;28;20027;-39
2023/12/05 06:25:01;;;;;;;14.82;11.23;;;3.80;99.90;;;;;;5074151;28;20021;-38
2023/12/05 06:27:27;;;;;;;13.07;10.32;;;3.80;99.90;;;;;;5062235;28;20036;-37
2023/12/05 06:29:53;;;;;;;15.38;11.40;;;3.80;99.90;;;;;;5073327;28;20024;-38
2023/12/05 06:32:18;;;;;;;17.33;13.27;;;3.80;99.90;;;;;;5060512;28;20047;-39
2023/12/05 06:34:44;;;;;;;14.88;11.38;;;3.80;99.90;;;;;;5073152;28;20028;-36
2023/12/05 06:37:09;;;;;;;15.70;12.05;;;3.80;99.90;;;;;;5062954;28;20047;-37
2023/12/05 06:39:35;;;;;;;15.60;12.38;;;3.80;99.90;;;;;;5070546;28;20032;-38
2023/12/05 06:42:01;;;;;;;14.57;11.65;;;3.80;99.90;;;;;;5064139;28;20028;-37
2023/12/05 06:44:26;;;;;;;14.32;11.70;;;3.80;99.90;;;;;;5068707;28;20107;-37
2023/12/05 06:46:52;;;;;;;17.98;13.10;;;3.80;99.90;;;;;;5066611;28;20074;-37
2023/12/05 06:49:17;;;;;;;16.67;12.20;;;3.80;99.90;;;;;;5066248;28;20127;-36
2023/12/05 06:51:43;;;;;;;17.38;13.18;;;3.80;99.90;;;;;;5070639;28;20458;-38
2023/12/05 06:54:08;;;;;;;14.50;11.32;;;3.80;99.90;;;;;;5062807;28;20169;-37
2023/12/05 06:56:34;;;;;;;15.48;10.85;;;3.80;99.90;;;;;;5073042;28;20117;-39
2023/12/05 06:59:06;;;;;;;15.27;11.98;;;3.80;99.90;;;;;;5062898;28;20059;-36
2023/12/05 07:01:31;;;;;;;17.05;11.15;;;3.80;99.90;;;;;;5072101;28;20036;-37
2023/12/05 07:03:57;;;;;;;14.93;11.25;;;3.80;99.90;;;;;;5060854;28;20043;-38
2023/12/05 07:06:23;;;;;;;15.00;12.00;;;3.80;99.90;;;;;;5073206;28;20036;-37
2023/12/05 07:08:48;;;;;;;16.23;12.98;;;3.80;99.90;;;;;;5060060;28;20055;-37
2023/12/05 07:11:14;;;;;;;17.45;13.38;;;3.80;99.90;;;;;;5072997;28;20031;-38
2023/12/05 07:13:40;;;;;;;16.83;12.35;;;3.80;99.90;;;;;;5060916;28;20036;-37
2023/12/05 07:16:06;;;;;;;16.67;12.45;;;3.80;99.90;;;;;;5071422;28;20020;-37
2023/12/05 07:18:31;;;;;;;16.55;13.13;;;3.80;99.90;;;;;;5062483;28;20082;-38
2023/12/05 07:20:57;;;;;;;16.80;13.02;;;3.80;99.90;;;;;;5069423;28;20020;-37
2023/12/05 07:23:23;;;;;;;18.55;13.50;;;3.80;99.90;;;;;;5062804;28;20438;-38
2023/12/05 07:25:49;;;;;;;16.38;12.65;;;3.80;99.90;;;;;;5066350;28;20535;-39
2023/12/05 07:28:15;;;;;;;18.25;13.85;;;3.80;99.90;;;;;;5067446;28;20029;-39
2023/12/05 07:30:40;;;;;;;17.30;13.27;;;3.80;99.90;;;;;;5063490;28;20027;-38
2023/12/05 07:33:06;;;;;;;18.15;14.05;;;3.80;99.90;;;;;;5069774;28;20028;-39
2023/12/05 07:35:31;;;;;;;18.27;13.90;;;3.80;99.90;;;;;;5062243;28;20050;-36
2023/12/05 07:37:57;;;;;;;18.70;14.15;;;3.80;99.90;;;;;;5071209;28;20114;-37
2023/12/05 07:40:23;;;;;;;15.75;12.02;;;3.80;99.90;;;;;;5062212;28;20057;-38
2023/12/05 07:42:48;;;;;;;16.90;12.88;;;3.80;99.90;;;;;;5071762;28;20039;-38
2023/12/05 07:45:14;;;;;;;20.40;15.13;;;3.80;99.90;;;;;;5061357;28;20113;-37
2023/12/05 07:47:42;;;;;;;21.05;15.23;;;3.80;99.90;;;;;;5067504;28;20747;-39
2023/12/05 07:50:11;;;;;;;22.17;16.23;;;3.80;99.90;;;;;;5080748;28;20028;-37
2023/12/05 07:52:37;;;;;;;23.23;16.58;;;3.70;99.90;;;;;;5068734;28;20071;-37
2023/12/05 07:55:02;;;;;;;21.02;16.00;;;3.70;99.90;;;;;;5080567;28;20471;-37
2023/12/05 07:57:28;;;;;;;20.10;15.57;;;3.70;99.90;;;;;;5068438;28;20052;-38
2023/12/05 07:59:53;;;;;;;19.38;14.77;;;3.70;99.90;;;;;;5079573;28;20076;-38
2023/12/05 08:02:20;;;;;;;21.25;15.40;;;3.70;99.90;;;;;;5072168;28;20024;-37
2023/12/05 08:04:46;;;;;;;21.58;16.25;;;3.70;99.90;;;;;;5076593;28;20028;-38
2023/12/05 08:07:12;;;;;;;22.38;14.95;;;3.80;99.90;;;;;;5074188;28;20048;-38
2023/12/05 08:09:38;;;;;;;20.10;15.27;;;3.70;99.90;;;;;;5075287;28;20028;-38
2023/12/05 08:12:07;;;;;;;23.45;16.13;;;3.70;99.90;;;;;;5076390;28;20122;-37
2023/12/05 08:14:32;;;;;;;20.42;14.75;;;3.70;99.90;;;;;;5073259;28;20468;-37
2023/12/05 08:16:58;;;;;;;19.60;14.73;;;3.70;99.90;;;;;;5078867;28;20034;-38
2023/12/05 08:19:25;;;;;;;20.65;14.68;;;3.80;99.90;;;;;;5068995;28;20036;-37
2023/12/05 08:21:51;;;;;;;21.63;15.32;;;3.80;99.90;;;;;;5078086;28;20028;-37
2023/12/05 08:24:17;;;;;;;18.63;13.43;;;3.80;99.90;;;;;;5069072;28;20470;-37
2023/12/05 08:26:43;;;;;;;22.23;15.80;;;3.80;99.90;;;;;;5079162;28;20044;-37
2023/12/05 08:29:09;;;;;;;20.55;15.55;;;3.80;99.90;;;;;;5075775;28;20061;-38
2023/12/05 08:31:34;;;;;;;21.63;15.90;;;3.80;99.90;;;;;;5060760;28;20125;-38
2023/12/05 08:34:00;;;;;;;21.20;15.07;;;3.70;99.90;;;;;;5072204;28;20534;-37
2023/12/05 08:36:26;;;;;;;21.15;15.10;;;3.70;99.90;;;;;;5061152;28;20027;-38
2023/12/05 08:38:51;;;;;;;20.73;15.43;;;3.80;99.90;;;;;;5070936;28;20039;-37
2023/12/05 08:41:18;;;;;;;18.90;14.05;;;3.80;99.90;;;;;;5061094;28;20098;-37
2023/12/05 08:43:44;;;;;;;20.95;15.27;;;3.80;99.90;;;;;;5069330;28;20099;-38
2023/12/05 08:46:10;;;;;;;23.80;17.05;;;3.80;99.90;;;;;;5063143;28;20044;-40
2023/12/05 08:48:35;;;;;;;20.30;15.20;;;3.70;99.90;;;;;;5066335;28;20036;-38
2023/12/05 08:51:01;;;;;;;19.48;14.70;;;3.70;99.90;;;;;;5065980;28;20025;-37
2023/12/05 08:53:30;;;;;;;21.40;15.30;;;3.70;99.90;;;;;;5063623;28;20209;-38
2023/12/05 08:55:55;;;;;;;19.63;14.90;;;3.70;99.90;;;;;;5071022;28;21113;-38
2023/12/05 08:58:21;;;;;;;20.25;14.70;;;3.70;99.90;;;;;;5080651;28;20020;-38
2023/12/05 09:00:47;;;;;;;21.40;16.25;;;3.70;99.90;;;;;;5080279;28;20024;-38
2023/12/05 09:03:13;;;;;;;24.08;17.00;;;3.70;99.90;;;;;;5080463;28;20034;-38
2023/12/05 09:05:38;;;;;;;19.55;14.60;;;3.70;99.90;;;;;;5080664;28;20024;-38
2023/12/05 09:08:04;;;;;;;19.75;14.27;;;3.70;99.90;;;;;;5079309;28;20043;-38
2023/12/05 09:10:30;;;;;;;17.27;13.07;;;3.70;99.90;;;;;;5078819;28;20532;-38
2023/12/05 09:12:55;;;;;;;18.85;13.30;;;3.70;99.90;;;;;;5079472;28;20035;-37
2023/12/05 09:15:21;;;;;;;17.05;13.30;;;3.70;99.90;;;;;;5079301;28;20521;-39
2023/12/05 09:17:47;;;;;;;15.07;11.40;;;3.70;99.90;;;;;;5079769;28;20054;-38
2023/12/05 09:20:12;;;;;;;18.80;14.00;;;3.70;99.90;;;;;;5079242;28;20493;-40
2023/12/05 09:22:38;;;;;;;19.80;15.38;;;3.70;99.90;;;;;;5079835;28;20032;-38
2023/12/05 09:25:04;;;;;;;20.08;15.15;;;3.70;99.90;;;;;;5079847;28;20038;-38
2023/12/05 09:27:29;;;;;;;21.35;15.15;;;3.70;99.90;;;;;;5078292;28;20036;-37
2023/12/05 09:29:55;;;;;;;18.42;13.68;;;3.70;99.90;;;;;;5078739;28;20550;-37
2023/12/05 09:32:21;;;;;;;19.40;14.00;;;3.70;99.90;;;;;;5079933;28;20035;-38
2023/12/05 09:34:46;;;;;;;17.23;12.98;;;3.70;99.90;;;;;;5079745;28;20506;-37
2023/12/05 09:37:12;;;;;;;18.30;13.77;;;3.70;99.90;;;;;;5079420;28;20028;-39
2023/12/05 09:39:37;;;;;;;18.05;13.40;;;3.70;99.90;;;;;;5080583;28;20016;-38
2023/12/05 09:42:10;;;;;;;17.15;11.77;;;3.70;99.90;;;;;;5078181;28;20059;-38
2023/12/05 09:44:36;;;;;;;;;;;3.80;99.90;;;;;;5080162;28;20027;-38
2023/12/05 09:47:05;;;;;;;18.05;12.93;;;3.80;99.90;;;;;;5081561;28;19912;-38
2023/12/05 09:49:31;;;;;;;18.98;13.60;;;3.80;99.90;;;;;;5083751;28;20113;-39
2023/12/05 09:52:01;;;;;;;17.48;12.55;;;3.80;99.90;;;;;;5083561;28;20089;-38
2023/12/05 09:54:27;;;;;;;15.98;11.98;;;3.70;99.90;;;;;;5084519;28;20024;-38
2023/12/05 09:56:57;;;;;;;17.23;13.40;;;3.80;99.90;;;;;;5082361;28;20047;-38
2023/12/05 09:59:23;;;;;;;17.55;14.05;;;3.80;99.90;;;;;;5084127;28;20016;-38
2023/12/05 10:01:52;;;;;;;18.48;12.88;;;3.80;99.90;;;;;;5083440;28;20109;-38
2023/12/05 10:04:22;;;;;;;14.95;11.80;;;3.80;99.90;;;;;;5082909;28;20020;-38
2023/12/05 10:06:48;;;;;;;18.10;13.68;;;3.80;99.90;;;;;;5082562;28;20063;-39
2023/12/05 10:09:16;;;;;;;16.92;12.70;;;3.80;99.90;;;;;;5083329;28;20169;-39
2023/12/05 10:11:43;;;;;;;19.05;14.90;;;3.90;99.90;;;;;;5082155;28;20028;-38
2023/12/05 10:14:09;;;;;;;19.42;14.70;;;3.80;99.90;;;;;;5082801;28;20629;-38
2023/12/05 10:16:36;;;;;;;18.30;13.68;;;3.90;99.90;;;;;;5082991;28;20352;-38
2023/12/05 10:19:02;;;;;;;19.08;13.80;;;3.80;99.90;;;;;;5081529;28;20028;-38
2023/12/05 10:21:27;;;;;;;18.42;13.38;;;3.80;99.90;;;;;;5082357;28;20020;-37
2023/12/05 10:23:54;;;;;;;16.85;12.77;;;3.80;99.90;;;;;;5082674;28;20085;-38
2023/12/05 10:26:20;;;;;;;15.90;12.18;;;3.90;99.90;;;;;;5081757;28;20143;-38
2023/12/05 10:28:53;;;;;;;17.63;11.85;;;3.90;99.90;;;;;;5082720;28;20551;-38
2023/12/05 10:31:18;;;;;;;;;;;3.90;99.90;;;;;;5083714;28;20031;-37
2023/12/05 10:33:45;;;;;;;17.85;13.63;;;3.90;99.90;;;;;;5083083;28;19934;-38
2023/12/05 10:36:12;;;;;;;16.58;12.57;;;3.90;99.90;;;;;;5082669;28;20458;-38
2023/12/05 10:38:44;;;;;;;17.20;12.88;;;3.90;99.90;;;;;;5082419;28;20043;-38
2023/12/05 10:41:09;;;;;;;15.30;11.52;;;3.90;99.90;;;;;;5082742;28;20032;-37
2023/12/05 10:43:46;;;;;;;17.83;12.43;;;3.90;99.90;;;;;;5082651;28;20085;-38
2023/12/05 10:46:12;;;;;;;22.02;14.10;;;3.90;99.90;;;;;;5081578;28;20032;-40
2023/12/05 10:48:37;;;;;;;20.73;13.77;;;3.90;99.90;;;;;;5082486;28;20040;-39
2023/12/05 10:51:04;;;;;;;17.23;12.68;;;3.90;99.90;;;;;;5082381;28;20039;-37
2023/12/05 10:53:34;;;;;;;16.83;12.32;;;3.80;99.90;;;;;;5081782;28;20032;-37
2023/12/05 10:56:14;;;;;;;19.15;14.05;;;3.80;99.90;;;;;;5082299;28;20414;-38
2023/12/05 10:58:41;;;;;;;18.50;13.35;;;3.80;99.90;;;;;;5080566;28;20036;-37
2023/12/05 11:01:11;;;;;;;19.10;13.60;;;3.80;99.90;;;;;;5082089;28;20031;-38
2023/12/05 11:03:38;;;;;;;18.00;13.88;;;3.80;99.90;;;;;;5082116;28;20738;-37
2023/12/05 11:06:06;;;;;;;16.42;13.10;;;3.80;99.90;;;;;;5081613;28;20028;-38
2023/12/05 11:08:33;;;;;;;19.17;13.52;;;3.80;99.90;;;;;;5080936;28;20027;-37
2023/12/05 11:11:01;;;;;;;19.92;14.13;;;3.80;99.90;;;;;;5082043;28;20024;-37
2023/12/05 11:13:28;;;;;;;19.38;13.95;;;3.80;99.90;;;;;;5081675;28;20020;-40
2023/12/05 11:15:56;;;;;;;22.02;15.57;;;3.80;99.90;;;;;;5082061;28;20428;-38
2023/12/05 11:18:40;;;;;;;20.98;14.98;;;3.80;99.90;;;;;;5081857;28;20429;-37
2023/12/05 11:21:20;;;;;;;19.90;14.68;;;3.80;99.90;;;;;;5081407;28;20475;-46
2023/12/05 11:24:24;;;;;;;19.80;14.20;;;3.80;99.90;;;;;;5080971;28;20525;-37
2023/12/05 11:27:11;;;;;;;22.27;15.23;;;3.80;99.90;;;;;;5066439;28;20040;-37
2023/12/05 11:29:56;;;;;;;23.00;17.38;;;3.80;99.90;;;;;;5077206;28;20081;-37
2023/12/05 11:32:21;;;;;;;23.08;15.70;;;3.80;99.90;;;;;;5061675;28;20108;-38
2023/12/05 11:35:02;;;;;;;20.02;15.00;;;3.70;99.90;;;;;;5076870;28;20024;-38
2023/12/05 11:37:50;;;;;;;20.60;14.30;;;3.70;99.90;;;;;;5062198;28;20081;-36
2023/12/05 11:40:15;;;;;;;21.50;15.23;;;3.70;99.90;;;;;;5079674;28;20028;-38
2023/12/05 11:43:06;;;;;;;21.27;15.45;;;3.80;99.90;;;;;;5080917;28;20077;-38
2023/12/05 11:45:35;;;;;;;19.75;14.70;;;3.80;99.90;;;;;;5081042;28;20039;-38
2023/12/05 11:48:01;;;;;;;20.42;14.52;;;3.80;99.90;;;;;;5081432;28;20097;-38
2023/12/05 11:50:47;;;;;;;18.27;14.05;;;3.80;99.90;;;;;;5080535;28;20027;-36
2023/12/05 11:53:15;;;;;;;19.20;13.68;;;3.80;99.90;;;;;;5081449;28;20028;-38
2023/12/05 11:55:47;;;;;;;19.10;12.55;;;3.80;99.90;;;;;;5078619;28;20043;-38
2023/12/05 11:58:34;;;;;;;17.90;13.23;;;3.80;99.90;;;;;;5060189;28;20119;-38
2023/12/05 12:01:10;;;;;;;20.55;13.93;;;3.80;99.90;;;;;;5072861;28;20504;-38
2023/12/05 12:03:54;;;;;;;20.13;14.77;;;3.80;99.90;;;;;;5060328;28;20024;-38
2023/12/05 12:06:23;;;;;;;19.75;14.27;;;3.80;99.90;;;;;;5073415;28;20032;-38
2023/12/05 12:08:51;;;;;;;21.13;14.50;;;3.80;99.90;;;;;;5060331;28;20567;-38
2023/12/05 12:11:17;;;;;;;20.02;14.85;;;3.80;99.90;;;;;;5072344;28;20031;-38
2023/12/05 12:13:46;;;;;;;21.90;15.55;;;3.80;99.90;;;;;;5060643;28;20029;-37
2023/12/05 12:16:16;;;;;;;22.83;15.52;;;3.80;99.90;;;;;;5071667;28;20087;-39
2023/12/05 12:18:42;;;;;;;20.98;14.02;;;3.80;99.90;;;;;;5039706;28;20497;-37
2023/12/05 12:21:10;;;;;;;24.13;15.93;;;3.80;99.90;;;;;;5064997;28;20556;-39
2023/12/05 12:23:39;;;;;;;23.63;15.82;;;3.80;99.90;;;;;;5062645;28;20115;-39
2023/12/05 12:26:09;;;;;;;28.40;16.70;;;3.70;99.90;;;;;;5068561;28;20035;-38
2023/12/05 12:28:38;;;;;;;28.75;17.77;;;3.70;99.90;;;;;;5063896;28;20035;-37
2023/12/05 12:31:04;;;;;;;27.23;17.80;;;3.70;99.90;;;;;;5066385;28;20043;-36
2023/12/05 12:33:46;;;;;;;26.48;16.50;;;3.70;99.90;;;;;;5066005;28;20040;-37
2023/12/05 12:36:18;;;;;;;26.80;17.38;;;3.70;99.90;;;;;;5066455;28;20024;-38
2023/12/05 12:38:45;;;;;;;28.30;17.45;;;3.70;99.90;;;;;;5065155;28;20028;-37